createdAt,value
2019-02-10T20:55:19.537Z,7.65
2019-02-10T20:57:49.813Z,7.58
2019-02-10T21:00:24.811Z,7.57
2019-02-10T21:02:55.127Z,7.56
2019-02-10T21:05:26.711Z,7.50
2019-02-10T21:08:06.151Z,7.38
2019-02-10T21:10:39.364Z,7.36
2019-02-10T21:13:15.437Z,7.35
2019-02-10T21:15:54.522Z,7.24
2019-02-10T21:18:27.573Z,7.30
2019-02-10T21:21:00.916Z,7.40
2019-02-10T21:23:33.953Z,7.40
2019-02-10T21:26:20.199Z,7.38
2019-02-10T21:28:56.236Z,7.39
2019-02-10T21:31:42.499Z,7.27
2019-02-10T21:34:12.805Z,7.28
2019-02-10T21:36:52.171Z,7.00
2019-02-10T21:39:37.351Z,7.08
2019-02-10T21:42:13.411Z,7.04
2019-02-10T21:44:46.465Z,7.01
2019-02-10T21:47:25.854Z,6.95
2019-02-10T21:49:54.585Z,6.99
2019-02-10T21:52:23.279Z,6.72
2019-02-10T21:54:51.975Z,6.96
2019-02-10T21:57:20.710Z,6.96
2019-02-10T21:59:49.408Z,6.96
2019-02-10T22:02:18.107Z,6.90
2019-02-10T22:04:46.843Z,6.96
2019-02-10T22:07:15.538Z,6.79
2019-02-10T22:09:44.230Z,6.79
2019-02-10T22:12:12.954Z,6.67
2019-02-10T22:14:41.580Z,6.70
2019-02-10T22:17:10.272Z,6.58
2019-02-10T22:19:38.935Z,6.58
2019-02-10T22:22:07.629Z,6.55
2019-02-10T22:24:36.338Z,6.01
2019-02-10T22:27:05.058Z,6.01
2019-02-10T22:29:33.686Z,5.91
2019-02-10T22:32:02.306Z,6.09
2019-02-10T22:34:30.890Z,5.44
2019-02-10T22:36:59.503Z,5.44
2019-02-10T22:39:28.136Z,6.02
2019-02-10T22:41:56.783Z,6.39
2019-02-10T22:44:25.444Z,6.32
2019-02-10T22:46:54.046Z,6.32
2019-02-10T22:49:22.695Z,6.37
2019-02-10T22:51:51.324Z,6.38
2019-02-10T22:54:19.950Z,6.51
2019-02-10T22:56:48.536Z,6.50
2019-02-10T22:59:17.173Z,6.30
2019-02-10T23:01:45.791Z,6.42
2019-02-10T23:04:14.390Z,6.13
2019-02-10T23:06:43.013Z,6.13
2019-02-10T23:09:13.267Z,6.28
2019-02-10T23:11:41.853Z,6.32
2019-02-10T23:14:10.552Z,6.33
2019-02-10T23:16:39.179Z,6.34
2019-02-10T23:19:07.770Z,6.49
2019-02-10T23:21:36.391Z,6.49
2019-02-10T23:24:05.014Z,6.35
2019-02-10T23:26:33.598Z,6.44
2019-02-10T23:29:02.236Z,6.44
2019-02-10T23:31:30.790Z,6.35
2019-02-10T23:33:59.386Z,6.24
2019-02-10T23:36:28.015Z,6.36
2019-02-10T23:38:56.630Z,6.36
2019-02-10T23:41:25.294Z,6.27
2019-02-10T23:43:53.909Z,6.28
2019-02-10T23:46:22.547Z,6.31
2019-02-10T23:48:51.188Z,5.80
2019-02-10T23:51:19.822Z,5.40
2019-02-10T23:53:48.440Z,5.82
2019-02-10T23:56:17.099Z,4.86
2019-02-10T23:58:45.645Z,5.93
